Peckham, United Kingdom
Current Conditions -  °F | °C
As of 1:20 AM on Sunday 23 Nov 2014 (Local Time) from EGLC Reporting Station
Haze Haze  
Wind Chill: 57°   Ceiling: 300
Heat Index: 57°   Visibility: 1.2mi
Dew Point: 55°   Wind: 3mph
Humidity: 94%   Direction: 110°ESE
Pressure: 29.94"   Gusts: NA
Location:  51.48°N, 0.07°W
Report Text: EGLC 230120Z AUTO 11003KT 2000 BR SCT002/// BKN003/// 14/13 Q1014
Loading
Personal Weather Stations






























Interactive Weather Map New forecast layout! Learn more

10-Day Weather Forecast

Advertisements
Track Severe Weather on mobile